Terminal Aerodrome Forecast
Issued by NWS

Home | Current Version | Previous Version | Text Only | Print | Product List | Glossary On
Versions: 1 2 3 4 5 6 7 8 9 10 11 12 13 14 15 16 17 18 19 20 21 22 23 24 25 26
000
FTUS46 KSEW 250858 AAA
TAFSEA
TAF AMD
KSEA 250858Z 2509/2612 18010KT P6SM VCSH BKN020 OVC030
      TEMPO 2509/2510 20012G25KT -RA OVC015
     FM251000 19015G25KT P6SM -RA OVC035
     FM251200 22019G27KT P6SM -RA OVC020
     FM251800 22014KT P6SM VCSH SCT020 BKN035
     FM260200 19008KT P6SM SCT020 BKN040=

USA.gov is the U.S. government's official web portal to all federal, state and local government web resources and services.